Terminal Aerodrome Forecast
Issued by NWS

Home | Current Version | Previous Version | Text Only | Print | Product List | Glossary On
Versions: 1 2 3 4 5 6 7 8 9 10 11 12 13 14 15 16 17 18 19
000
FTUS43 KDTX 232333
TAFMBS
TAF
KMBS 232333Z 2400/2424 31010KT P6SM FEW040 SCT250
     FM240600 28006KT P6SM SCT060
     FM241600 28013KT P6SM BKN040 PROB30 2416/2420 6SM -SHRA OVC030=

USA.gov is the U.S. government's official web portal to all federal, state and local government web resources and services.